Winchester, VA

10:37 PM EDT on July 26, 2016 (GMT -0400)
Hayfield | | Change Station

Elev 740 ft 39.23 °N, 78.27 °W | Updated 1 minute ago

Clear
Clear
78.4 °F
Feels Like 80 °F
N
0.0
Wind Variable Wind from South
Gusts 0.0 mph

Today
High -- | Low -- °F
--% Chance of Precip.
Yesterday
High -- | Low -- °F
Precip. -- in
Pressure 29.97 in
Visibility 10.0 miles
Clouds Clear
Heat Index 80 °F
Dew Point 64 °F
Humidity 61%
Rainfall Not available.
Snow Depth Not available.
6:08 AM 8:30 PM
Waning Gibbous, 48% visible
METAR KOKV 270215Z AUTO 25004KT 10SM CLR 27/21 A2997 RMK AO2
Pressure 29.97 in
Visibility 10.0 miles
Clouds Clear
Heat Index 80 °F
Dew Point 64 °F
Humidity 61%
Rainfall Not available.
Snow Depth Not available.
6:08 AM 8:30 PM
Waning Gibbous, 48% visible
METAR KOKV 270215Z AUTO 25004KT 10SM CLR 27/21 A2997 RMK AO2

10-Day Weather Forecast

Almanac

Astronomy

Jul. 26, 2016 Rise Set
Actual Time
Civil Twilight
Nautical Twilight
Astronomical Twilight
Moon
Length of Visible Light
Length of Day
Tomorrow will be .
, % of the Moon is Illuminated

Today's Extremes

State Highs State Lows

Community

WunderPhotos

Upload Photos

1,927,779 photos uploaded!

WunderBlog® & News

Nearby

Air Quality

  Air Quality AQ Index Pollutant
Not available.

Snow Depth

Station Depth Elevation

Earthquake Activity

City Distance Mag. Time & Date
Minimum magnitude displayed is 2.5.

Coastal Water Temperatures

Place Temperature

Stations

Nearby Weather Stations

Station Location Temp. Windchill Dew Point Humidity Wind Precip. Elev Updated Type
                   

Watches & Warnings

There are currently no watches in effect.